sensor_id;sensor_type;location;lat;lon;timestamp;pressure;altitude;pressure_sealevel;temperature;humidity
43989;BME280;54163;51.386;7.178;2022-07-06T00:00:14;101439.78;;;19.41;54.67
43989;BME280;54163;51.386;7.178;2022-07-06T00:02:41;101441.75;;;19.39;54.74
43989;BME280;54163;51.386;7.178;2022-07-06T00:05:08;101440.53;;;19.64;54.06
43989;BME280;54163;51.386;7.178;2022-07-06T00:07:36;101442.00;;;19.77;53.78
43989;BME280;54163;51.386;7.178;2022-07-06T00:10:04;101447.06;;;19.82;53.56
43989;BME280;54163;51.386;7.178;2022-07-06T00:12:31;101446.63;;;19.86;53.22
43989;BME280;54163;51.386;7.178;2022-07-06T00:14:58;101453.09;;;19.85;52.92
43989;BME280;54163;51.386;7.178;2022-07-06T00:17:25;101446.84;;;19.95;52.59
43989;BME280;54163;51.386;7.178;2022-07-06T00:19:52;101443.69;;;18.96;55.49
43989;BME280;54163;51.386;7.178;2022-07-06T00:22:19;101447.84;;;19.00;55.36
43989;BME280;54163;51.386;7.178;2022-07-06T00:24:47;101447.03;;;18.88;55.86
43989;BME280;54163;51.386;7.178;2022-07-06T00:27:13;101451.59;;;18.99;55.36
43989;BME280;54163;51.386;7.178;2022-07-06T00:29:41;101452.66;;;19.07;55.25
43989;BME280;54163;51.386;7.178;2022-07-06T00:32:09;101447.94;;;19.09;54.98
43989;BME280;54163;51.386;7.178;2022-07-06T00:34:37;101447.81;;;19.11;54.84
43989;BME280;54163;51.386;7.178;2022-07-06T00:37:06;101445.75;;;19.03;54.79
43989;BME280;54163;51.386;7.178;2022-07-06T00:39:33;101452.19;;;19.02;54.73
43989;BME280;54163;51.386;7.178;2022-07-06T00:42:01;101442.94;;;18.94;54.74
43989;BME280;54163;51.386;7.178;2022-07-06T00:44:28;101442.00;;;18.84;54.71
43989;BME280;54163;51.386;7.178;2022-07-06T00:46:56;101450.38;;;18.92;54.49
43989;BME280;54163;51.386;7.178;2022-07-06T00:49:23;101446.88;;;19.01;53.69
43989;BME280;54163;51.386;7.178;2022-07-06T00:52:08;101441.41;;;18.80;54.19
43989;BME280;54163;51.386;7.178;2022-07-06T00:54:36;101447.94;;;18.77;54.22
43989;BME280;54163;51.386;7.178;2022-07-06T00:57:06;101448.44;;;18.83;53.64
43989;BME280;54163;51.386;7.178;2022-07-06T00:59:33;101447.47;;;18.72;53.70
43989;BME280;54163;51.386;7.178;2022-07-06T01:02:00;101449.56;;;18.69;54.00
43989;BME280;54163;51.386;7.178;2022-07-06T01:04:26;101444.03;;;18.70;53.77
43989;BME280;54163;51.386;7.178;2022-07-06T01:06:54;101451.78;;;18.75;53.67
43989;BME280;54163;51.386;7.178;2022-07-06T01:09:22;101455.63;;;18.72;53.88
43989;BME280;54163;51.386;7.178;2022-07-06T01:11:50;101451.66;;;18.65;53.81
43989;BME280;54163;51.386;7.178;2022-07-06T01:14:20;101454.03;;;18.59;54.13
43989;BME280;54163;51.386;7.178;2022-07-06T01:16:48;101453.91;;;18.60;53.98
43989;BME280;54163;51.386;7.178;2022-07-06T01:19:15;101455.28;;;18.55;54.14
43989;BME280;54163;51.386;7.178;2022-07-06T01:21:44;101451.47;;;18.46;54.21
43989;BME280;54163;51.386;7.178;2022-07-06T01:24:11;101455.25;;;18.44;54.35
43989;BME280;54163;51.386;7.178;2022-07-06T01:26:38;101442.19;;;18.38;54.43
43989;BME280;54163;51.386;7.178;2022-07-06T01:29:05;101451.34;;;18.37;54.66
43989;BME280;54163;51.386;7.178;2022-07-06T01:31:32;101448.63;;;18.37;54.82
43989;BME280;54163;51.386;7.178;2022-07-06T01:33:59;101446.16;;;18.34;54.97
43989;BME280;54163;51.386;7.178;2022-07-06T01:36:27;101447.66;;;18.26;55.41
43989;BME280;54163;51.386;7.178;2022-07-06T01:38:56;101452.97;;;18.17;55.67
43989;BME280;54163;51.386;7.178;2022-07-06T01:41:24;101451.00;;;18.08;56.06
43989;BME280;54163;51.386;7.178;2022-07-06T01:43:51;101438.88;;;18.01;56.55
43989;BME280;54163;51.386;7.178;2022-07-06T01:46:19;101443.84;;;17.96;57.05
43989;BME280;54163;51.386;7.178;2022-07-06T01:48:46;101442.09;;;17.95;56.99
43989;BME280;54163;51.386;7.178;2022-07-06T01:51:13;101442.44;;;17.90;57.40
43989;BME280;54163;51.386;7.178;2022-07-06T01:53:42;101433.97;;;17.84;57.42
43989;BME280;54163;51.386;7.178;2022-07-06T01:56:12;101435.28;;;17.78;57.43
43989;BME280;54163;51.386;7.178;2022-07-06T01:58:40;101431.72;;;17.66;57.73
43989;BME280;54163;51.386;7.178;2022-07-06T02:01:09;101431.94;;;17.63;57.87
43989;BME280;54163;51.386;7.178;2022-07-06T02:03:37;101430.84;;;17.66;57.94
43989;BME280;54163;51.386;7.178;2022-07-06T02:06:05;101433.06;;;17.61;58.19
43989;BME280;54163;51.386;7.178;2022-07-06T02:08:33;101438.31;;;17.51;58.59
43989;BME280;54163;51.386;7.178;2022-07-06T02:11:01;101440.88;;;17.42;58.93
43989;BME280;54163;51.386;7.178;2022-07-06T02:13:30;101438.78;;;17.45;58.77
43989;BME280;54163;51.386;7.178;2022-07-06T02:16:00;101441.38;;;17.47;58.72
43989;BME280;54163;51.386;7.178;2022-07-06T02:18:27;101445.56;;;17.40;58.90
43989;BME280;54163;51.386;7.178;2022-07-06T02:20:56;101439.69;;;17.22;59.82
43989;BME280;54163;51.386;7.178;2022-07-06T02:23:26;101446.84;;;17.23;59.83
43989;BME280;54163;51.386;7.178;2022-07-06T02:25:53;101440.81;;;17.19;59.92
43989;BME280;54163;51.386;7.178;2022-07-06T02:28:21;101438.97;;;17.20;59.99
43989;BME280;54163;51.386;7.178;2022-07-06T02:30:49;101444.34;;;17.09;60.55
43989;BME280;54163;51.386;7.178;2022-07-06T02:33:17;101445.16;;;16.98;61.14
43989;BME280;54163;51.386;7.178;2022-07-06T02:35:45;101437.66;;;17.02;60.82
43989;BME280;54163;51.386;7.178;2022-07-06T02:38:12;101435.81;;;17.02;61.19
43989;BME280;54163;51.386;7.178;2022-07-06T02:40:39;101431.50;;;17.00;61.00
43989;BME280;54163;51.386;7.178;2022-07-06T02:43:07;101440.84;;;16.96;61.36
43989;BME280;54163;51.386;7.178;2022-07-06T02:45:35;101441.31;;;16.90;61.58
43989;BME280;54163;51.386;7.178;2022-07-06T02:48:05;101441.78;;;16.84;61.82
43989;BME280;54163;51.386;7.178;2022-07-06T02:50:33;101441.00;;;16.82;61.99
43989;BME280;54163;51.386;7.178;2022-07-06T02:53:00;101442.94;;;16.69;62.32
43989;BME280;54163;51.386;7.178;2022-07-06T02:55:27;101439.22;;;16.70;62.36
43989;BME280;54163;51.386;7.178;2022-07-06T02:57:55;101442.16;;;16.66;62.31
43989;BME280;54163;51.386;7.178;2022-07-06T03:00:23;101448.28;;;16.57;62.72
43989;BME280;54163;51.386;7.178;2022-07-06T03:02:51;101444.88;;;16.54;62.96
43989;BME280;54163;51.386;7.178;2022-07-06T03:05:20;101448.69;;;16.51;63.03
43989;BME280;54163;51.386;7.178;2022-07-06T03:07:47;101440.94;;;16.47;63.33
43989;BME280;54163;51.386;7.178;2022-07-06T03:10:15;101449.47;;;16.41;63.68
43989;BME280;54163;51.386;7.178;2022-07-06T03:12:44;101446.38;;;16.34;63.93
43989;BME280;54163;51.386;7.178;2022-07-06T03:15:11;101451.25;;;16.29;64.34
43989;BME280;54163;51.386;7.178;2022-07-06T03:17:40;101456.66;;;16.29;64.36
43989;BME280;54163;51.386;7.178;2022-07-06T03:20:08;101454.81;;;16.30;64.34
43989;BME280;54163;51.386;7.178;2022-07-06T03:22:36;101459.72;;;16.25;64.84
43989;BME280;54163;51.386;7.178;2022-07-06T03:25:05;101463.28;;;16.25;64.64
43989;BME280;54163;51.386;7.178;2022-07-06T03:27:34;101462.28;;;16.26;64.95
43989;BME280;54163;51.386;7.178;2022-07-06T03:30:02;101468.72;;;16.25;64.98
43989;BME280;54163;51.386;7.178;2022-07-06T03:32:31;101460.78;;;16.22;65.06
43989;BME280;54163;51.386;7.178;2022-07-06T03:35:00;101462.28;;;16.26;64.92
43989;BME280;54163;51.386;7.178;2022-07-06T03:37:27;101456.56;;;16.31;64.96
43989;BME280;54163;51.386;7.178;2022-07-06T03:39:56;101466.16;;;16.35;65.15
43989;BME280;54163;51.386;7.178;2022-07-06T03:42:23;101461.31;;;16.40;65.14
43989;BME280;54163;51.386;7.178;2022-07-06T03:44:51;101464.94;;;16.51;64.56
43989;BME280;54163;51.386;7.178;2022-07-06T03:47:18;101455.66;;;16.55;64.71
43989;BME280;54163;51.386;7.178;2022-07-06T03:49:46;101459.44;;;16.53;64.81
43989;BME280;54163;51.386;7.178;2022-07-06T03:52:13;101459.00;;;16.59;64.68
43989;BME280;54163;51.386;7.178;2022-07-06T03:54:48;101459.66;;;16.62;64.76
43989;BME280;54163;51.386;7.178;2022-07-06T03:57:21;101463.72;;;16.68;64.51
43989;BME280;54163;51.386;7.178;2022-07-06T03:59:48;101464.97;;;16.75;64.47
43989;BME280;54163;51.386;7.178;2022-07-06T04:02:16;101456.28;;;16.83;63.80
43989;BME280;54163;51.386;7.178;2022-07-06T04:04:43;101457.44;;;16.91;63.95
43989;BME280;54163;51.386;7.178;2022-07-06T04:07:11;101452.97;;;17.03;63.33
43989;BME280;54163;51.386;7.178;2022-07-06T04:09:39;101458.63;;;17.00;63.38
43989;BME280;54163;51.386;7.178;2022-07-06T04:12:07;101459.44;;;17.00;63.40
43989;BME280;54163;51.386;7.178;2022-07-06T04:14:36;101469.47;;;17.00;63.41
43989;BME280;54163;51.386;7.178;2022-07-06T04:17:04;101474.50;;;17.04;63.29
43989;BME280;54163;51.386;7.178;2022-07-06T04:19:52;101475.88;;;17.10;63.09
43989;BME280;54163;51.386;7.178;2022-07-06T04:22:20;101462.09;;;17.13;62.97
43989;BME280;54163;51.386;7.178;2022-07-06T04:24:47;101468.91;;;17.18;62.76
43989;BME280;54163;51.386;7.178;2022-07-06T04:27:14;101472.38;;;17.20;63.08
43989;BME280;54163;51.386;7.178;2022-07-06T04:29:44;101476.13;;;17.07;63.82
43989;BME280;54163;51.386;7.178;2022-07-06T04:32:11;101462.88;;;17.15;63.01
43989;BME280;54163;51.386;7.178;2022-07-06T04:34:39;101465.34;;;17.18;63.27
43989;BME280;54163;51.386;7.178;2022-07-06T04:37:06;101465.69;;;17.13;63.51
43989;BME280;54163;51.386;7.178;2022-07-06T04:39:34;101470.47;;;17.10;63.76
43989;BME280;54163;51.386;7.178;2022-07-06T04:42:01;101476.88;;;17.09;63.64
43989;BME280;54163;51.386;7.178;2022-07-06T04:44:28;101468.56;;;17.23;63.18
43989;BME280;54163;51.386;7.178;2022-07-06T04:46:57;101474.13;;;17.33;62.80
43989;BME280;54163;51.386;7.178;2022-07-06T04:49:25;101475.09;;;17.32;63.17
43989;BME280;54163;51.386;7.178;2022-07-06T04:51:52;101470.06;;;17.27;63.51
43989;BME280;54163;51.386;7.178;2022-07-06T04:54:19;101466.78;;;17.46;62.66
43989;BME280;54163;51.386;7.178;2022-07-06T04:56:47;101474.78;;;17.47;62.36
43989;BME280;54163;51.386;7.178;2022-07-06T04:59:14;101469.53;;;17.57;61.93
43989;BME280;54163;51.386;7.178;2022-07-06T05:01:43;101478.69;;;17.67;61.77
43989;BME280;54163;51.386;7.178;2022-07-06T05:04:12;101473.75;;;17.72;61.67
43989;BME280;54163;51.386;7.178;2022-07-06T05:06:39;101470.66;;;17.65;61.67
43989;BME280;54163;51.386;7.178;2022-07-06T05:09:06;101466.88;;;17.68;61.69
43989;BME280;54163;51.386;7.178;2022-07-06T05:11:34;101475.09;;;17.55;61.96
43989;BME280;54163;51.386;7.178;2022-07-06T05:14:04;101477.50;;;17.47;62.34
43989;BME280;54163;51.386;7.178;2022-07-06T05:16:31;101476.03;;;17.54;62.35
43989;BME280;54163;51.386;7.178;2022-07-06T05:18:59;101479.88;;;17.52;62.21
43989;BME280;54163;51.386;7.178;2022-07-06T05:21:29;101476.53;;;17.48;62.26
43989;BME280;54163;51.386;7.178;2022-07-06T05:23:56;101476.56;;;17.59;61.84
43989;BME280;54163;51.386;7.178;2022-07-06T05:26:24;101472.59;;;17.52;62.36
43989;BME280;54163;51.386;7.178;2022-07-06T05:28:51;101471.91;;;17.61;61.81
43989;BME280;54163;51.386;7.178;2022-07-06T05:31:21;101475.13;;;17.66;61.77
43989;BME280;54163;51.386;7.178;2022-07-06T05:33:48;101475.25;;;17.76;61.50
43989;BME280;54163;51.386;7.178;2022-07-06T05:36:16;101481.22;;;17.92;61.03
43989;BME280;54163;51.386;7.178;2022-07-06T05:38:44;101477.28;;;17.96;60.83
43989;BME280;54163;51.386;7.178;2022-07-06T05:41:12;101479.38;;;17.93;61.01
43989;BME280;54163;51.386;7.178;2022-07-06T05:43:39;101474.91;;;17.92;61.10
43989;BME280;54163;51.386;7.178;2022-07-06T05:46:06;101481.06;;;17.94;60.93
43989;BME280;54163;51.386;7.178;2022-07-06T05:48:35;101475.53;;;17.95;61.12
43989;BME280;54163;51.386;7.178;2022-07-06T05:51:23;101492.84;;;18.05;60.79
43989;BME280;54163;51.386;7.178;2022-07-06T05:53:53;101487.63;;;18.13;60.40
43989;BME280;54163;51.386;7.178;2022-07-06T05:56:21;101489.84;;;18.19;60.52
43989;BME280;54163;51.386;7.178;2022-07-06T05:58:48;101491.94;;;18.16;60.82
43989;BME280;54163;51.386;7.178;2022-07-06T06:01:15;101490.72;;;18.20;60.46
43989;BME280;54163;51.386;7.178;2022-07-06T06:03:49;101499.63;;;18.11;60.82
43989;BME280;54163;51.386;7.178;2022-07-06T06:06:16;101492.56;;;18.19;60.76
43989;BME280;54163;51.386;7.178;2022-07-06T06:08:43;101499.63;;;18.33;60.66
43989;BME280;54163;51.386;7.178;2022-07-06T06:11:12;101499.88;;;18.63;59.41
43989;BME280;54163;51.386;7.178;2022-07-06T06:13:40;101498.47;;;18.69;59.39
43989;BME280;54163;51.386;7.178;2022-07-06T06:16:07;101493.81;;;18.60;59.70
43989;BME280;54163;51.386;7.178;2022-07-06T06:18:35;101492.69;;;18.73;59.32
43989;BME280;54163;51.386;7.178;2022-07-06T06:21:02;101497.63;;;18.79;59.28
43989;BME280;54163;51.386;7.178;2022-07-06T06:23:29;101500.38;;;19.00;58.88
43989;BME280;54163;51.386;7.178;2022-07-06T06:25:56;101502.94;;;19.13;58.44
43989;BME280;54163;51.386;7.178;2022-07-06T06:28:24;101498.75;;;19.52;57.57
43989;BME280;54163;51.386;7.178;2022-07-06T06:30:52;101505.56;;;19.88;56.48
43989;BME280;54163;51.386;7.178;2022-07-06T06:33:20;101496.97;;;20.13;55.80
43989;BME280;54163;51.386;7.178;2022-07-06T06:35:48;101494.28;;;20.22;55.05
43989;BME280;54163;51.386;7.178;2022-07-06T06:38:16;101505.03;;;20.24;54.96
43989;BME280;54163;51.386;7.178;2022-07-06T06:40:44;101504.00;;;20.36;54.58
43989;BME280;54163;51.386;7.178;2022-07-06T06:43:11;101508.16;;;20.40;54.05
43989;BME280;54163;51.386;7.178;2022-07-06T06:45:59;101513.59;;;20.40;54.27
43989;BME280;54163;51.386;7.178;2022-07-06T06:48:26;101505.00;;;20.35;54.20
43989;BME280;54163;51.386;7.178;2022-07-06T06:50:53;101516.66;;;20.47;54.21
43989;BME280;54163;51.386;7.178;2022-07-06T06:53:20;101514.78;;;20.47;53.51
43989;BME280;54163;51.386;7.178;2022-07-06T06:55:47;101512.97;;;20.57;53.01
43989;BME280;54163;51.386;7.178;2022-07-06T06:58:14;101515.22;;;20.52;53.01
43989;BME280;54163;51.386;7.178;2022-07-06T07:00:41;101509.03;;;20.41;53.28
43989;BME280;54163;51.386;7.178;2022-07-06T07:03:10;101519.09;;;20.50;53.41
43989;BME280;54163;51.386;7.178;2022-07-06T07:05:37;101505.94;;;20.64;53.04
43989;BME280;54163;51.386;7.178;2022-07-06T07:08:05;101516.16;;;20.72;53.34
43989;BME280;54163;51.386;7.178;2022-07-06T07:10:32;101517.56;;;20.57;52.71
43989;BME280;54163;51.386;7.178;2022-07-06T07:12:59;101518.97;;;20.51;53.38
43989;BME280;54163;51.386;7.178;2022-07-06T07:15:26;101522.75;;;20.69;52.86
43989;BME280;54163;51.386;7.178;2022-07-06T07:17:54;101512.00;;;20.77;52.98
43989;BME280;54163;51.386;7.178;2022-07-06T07:20:22;101527.69;;;20.85;52.77
43989;BME280;54163;51.386;7.178;2022-07-06T07:22:49;101520.94;;;20.99;51.59
43989;BME280;54163;51.386;7.178;2022-07-06T07:25:16;101524.47;;;21.20;51.60
43989;BME280;54163;51.386;7.178;2022-07-06T07:27:43;101535.41;;;21.29;50.96
43989;BME280;54163;51.386;7.178;2022-07-06T07:30:11;101521.63;;;21.50;50.66
43989;BME280;54163;51.386;7.178;2022-07-06T07:32:38;101530.81;;;21.49;49.41
43989;BME280;54163;51.386;7.178;2022-07-06T07:35:06;101532.94;;;21.36;50.09
43989;BME280;54163;51.386;7.178;2022-07-06T07:37:34;101533.13;;;21.44;50.38
43989;BME280;54163;51.386;7.178;2022-07-06T07:40:01;101540.84;;;21.49;50.13
43989;BME280;54163;51.386;7.178;2022-07-06T07:42:30;101534.66;;;21.18;49.48
43989;BME280;54163;51.386;7.178;2022-07-06T07:44:57;101538.69;;;21.14;50.15
43989;BME280;54163;51.386;7.178;2022-07-06T07:47:24;101529.50;;;21.24;50.06
43989;BME280;54163;51.386;7.178;2022-07-06T07:49:50;101534.56;;;21.38;49.85
43989;BME280;54163;51.386;7.178;2022-07-06T07:52:17;101537.00;;;21.41;48.73
43989;BME280;54163;51.386;7.178;2022-07-06T07:54:45;101537.84;;;21.32;48.00
43989;BME280;54163;51.386;7.178;2022-07-06T07:57:12;101539.34;;;21.06;47.88
43989;BME280;54163;51.386;7.178;2022-07-06T07:59:39;101535.00;;;20.84;47.84
43989;BME280;54163;51.386;7.178;2022-07-06T08:02:08;101538.00;;;20.81;48.27
43989;BME280;54163;51.386;7.178;2022-07-06T08:04:35;101540.03;;;20.99;48.24
43989;BME280;54163;51.386;7.178;2022-07-06T08:07:02;101543.69;;;21.09;48.01
43989;BME280;54163;51.386;7.178;2022-07-06T08:09:29;101538.84;;;21.22;47.59
43989;BME280;54163;51.386;7.178;2022-07-06T08:11:58;101550.06;;;21.38;47.57
43989;BME280;54163;51.386;7.178;2022-07-06T08:14:25;101550.06;;;21.48;46.96
43989;BME280;54163;51.386;7.178;2022-07-06T08:16:52;101538.84;;;21.70;46.98
43989;BME280;54163;51.386;7.178;2022-07-06T08:19:19;101545.03;;;21.91;46.72
43989;BME280;54163;51.386;7.178;2022-07-06T08:21:46;101544.19;;;21.90;45.95
43989;BME280;54163;51.386;7.178;2022-07-06T08:24:13;101548.00;;;22.17;45.52
43989;BME280;54163;51.386;7.178;2022-07-06T08:26:40;101536.91;;;22.18;46.06
43989;BME280;54163;51.386;7.178;2022-07-06T08:29:08;101550.00;;;22.15;45.83
43989;BME280;54163;51.386;7.178;2022-07-06T08:31:36;101541.41;;;22.10;45.85
43989;BME280;54163;51.386;7.178;2022-07-06T08:34:03;101538.25;;;21.95;44.67
43989;BME280;54163;51.386;7.178;2022-07-06T08:36:30;101535.97;;;22.00;44.37
43989;BME280;54163;51.386;7.178;2022-07-06T08:38:58;101525.31;;;21.78;44.73
43989;BME280;54163;51.386;7.178;2022-07-06T08:41:28;101521.91;;;21.66;45.16
43989;BME280;54163;51.386;7.178;2022-07-06T08:43:56;101533.09;;;21.25;44.61
43989;BME280;54163;51.386;7.178;2022-07-06T08:46:27;101521.91;;;21.37;43.89
43989;BME280;54163;51.386;7.178;2022-07-06T08:48:56;101521.63;;;21.50;43.69
43989;BME280;54163;51.386;7.178;2022-07-06T08:51:24;101522.47;;;21.41;44.44
43989;BME280;54163;51.386;7.178;2022-07-06T08:53:51;101517.00;;;21.70;43.72
43989;BME280;54163;51.386;7.178;2022-07-06T08:56:19;101518.13;;;21.77;42.32
43989;BME280;54163;51.386;7.178;2022-07-06T08:58:46;101520.16;;;21.94;41.39
43989;BME280;54163;51.386;7.178;2022-07-06T09:01:14;101523.28;;;22.09;41.68
43989;BME280;54163;51.386;7.178;2022-07-06T09:03:45;101525.25;;;22.26;42.44
43989;BME280;54163;51.386;7.178;2022-07-06T09:06:16;101531.22;;;22.39;42.27
43989;BME280;54163;51.386;7.178;2022-07-06T09:08:43;101530.72;;;22.26;40.47
43989;BME280;54163;51.386;7.178;2022-07-06T09:11:10;101536.31;;;22.24;39.47
43989;BME280;54163;51.386;7.178;2022-07-06T09:13:37;101535.75;;;22.21;39.71
43989;BME280;54163;51.386;7.178;2022-07-06T09:16:12;101528.00;;;22.26;40.32
43989;BME280;54163;51.386;7.178;2022-07-06T09:18:39;101546.16;;;22.54;40.60
43989;BME280;54163;51.386;7.178;2022-07-06T09:21:11;101539.03;;;22.71;40.83
43989;BME280;54163;51.386;7.178;2022-07-06T09:23:38;101524.03;;;23.02;40.78
43989;BME280;54163;51.386;7.178;2022-07-06T09:26:06;101530.97;;;22.79;40.45
43989;BME280;54163;51.386;7.178;2022-07-06T09:28:42;101523.28;;;22.82;40.64
43989;BME280;54163;51.386;7.178;2022-07-06T09:31:10;101527.84;;;22.91;40.85
43989;BME280;54163;51.386;7.178;2022-07-06T09:33:38;101519.84;;;22.80;40.95
43989;BME280;54163;51.386;7.178;2022-07-06T09:36:05;101519.28;;;22.77;41.41
43989;BME280;54163;51.386;7.178;2022-07-06T09:38:34;101520.31;;;22.76;41.48
43989;BME280;54163;51.386;7.178;2022-07-06T09:41:01;101524.56;;;22.88;41.32
43989;BME280;54163;51.386;7.178;2022-07-06T09:43:28;101525.56;;;22.87;40.77
43989;BME280;54163;51.386;7.178;2022-07-06T09:45:57;101517.75;;;22.92;40.80
43989;BME280;54163;51.386;7.178;2022-07-06T09:48:25;101525.97;;;22.92;41.38
43989;BME280;54163;51.386;7.178;2022-07-06T09:50:53;101525.94;;;22.74;40.68
43989;BME280;54163;51.386;7.178;2022-07-06T09:53:22;101532.88;;;22.69;41.10
43989;BME280;54163;51.386;7.178;2022-07-06T09:55:52;101530.13;;;22.69;42.06
43989;BME280;54163;51.386;7.178;2022-07-06T09:58:20;101534.25;;;22.36;42.27
43989;BME280;54163;51.386;7.178;2022-07-06T10:00:48;101535.50;;;22.51;42.18
43989;BME280;54163;51.386;7.178;2022-07-06T10:03:16;101528.13;;;22.88;41.90
43989;BME280;54163;51.386;7.178;2022-07-06T10:05:45;101526.78;;;23.20;41.37
43989;BME280;54163;51.386;7.178;2022-07-06T10:08:14;101521.16;;;23.03;41.62
43989;BME280;54163;51.386;7.178;2022-07-06T10:10:42;101525.31;;;22.80;41.12
43989;BME280;54163;51.386;7.178;2022-07-06T10:13:11;101530.41;;;22.75;40.69
43989;BME280;54163;51.386;7.178;2022-07-06T10:15:39;101519.28;;;22.77;40.74
43989;BME280;54163;51.386;7.178;2022-07-06T10:18:07;101528.13;;;22.88;41.08
43989;BME280;54163;51.386;7.178;2022-07-06T10:20:36;101519.03;;;22.97;40.86
43989;BME280;54163;51.386;7.178;2022-07-06T10:23:05;101523.72;;;23.23;41.32
43989;BME280;54163;51.386;7.178;2022-07-06T10:25:33;101527.63;;;23.02;40.28
43989;BME280;54163;51.386;7.178;2022-07-06T10:28:01;101525.31;;;23.25;39.87
43989;BME280;54163;51.386;7.178;2022-07-06T10:30:31;101526.88;;;23.28;39.39
43989;BME280;54163;51.386;7.178;2022-07-06T10:32:58;101518.91;;;22.89;39.85
43989;BME280;54163;51.386;7.178;2022-07-06T10:35:26;101521.75;;;22.70;40.74
43989;BME280;54163;51.386;7.178;2022-07-06T10:38:04;101518.91;;;22.89;40.79
43989;BME280;54163;51.386;7.178;2022-07-06T10:40:32;101520.75;;;22.71;40.86
43989;BME280;54163;51.386;7.178;2022-07-06T10:43:17;101526.00;;;23.10;40.06
43989;BME280;54163;51.386;7.178;2022-07-06T10:45:52;101526.69;;;23.29;39.00
43989;BME280;54163;51.386;7.178;2022-07-06T10:48:22;101528.25;;;23.59;38.83
43989;BME280;54163;51.386;7.178;2022-07-06T10:50:52;101534.69;;;23.76;38.96
43989;BME280;54163;51.386;7.178;2022-07-06T10:53:24;101526.75;;;23.65;38.77
43989;BME280;54163;51.386;7.178;2022-07-06T10:55:54;101529.25;;;23.58;38.60
43989;BME280;54163;51.386;7.178;2022-07-06T10:58:35;101515.06;;;23.80;39.23
43989;BME280;54163;51.386;7.178;2022-07-06T11:01:04;101524.03;;;23.90;38.15
43989;BME280;54163;51.386;7.178;2022-07-06T11:03:40;101526.84;;;23.98;38.61
43989;BME280;54163;51.386;7.178;2022-07-06T11:06:10;101513.53;;;23.86;38.92
43989;BME280;54163;51.386;7.178;2022-07-06T11:08:42;101513.19;;;23.81;37.95
43989;BME280;54163;51.386;7.178;2022-07-06T11:11:13;101504.81;;;23.65;38.50
43989;BME280;54163;51.386;7.178;2022-07-06T11:13:53;101504.69;;;23.48;38.74
43989;BME280;54163;51.386;7.178;2022-07-06T11:16:22;101510.31;;;23.47;38.70
43989;BME280;54163;51.386;7.178;2022-07-06T11:19:04;101512.09;;;23.21;39.22
43989;BME280;54163;51.386;7.178;2022-07-06T11:21:35;101512.25;;;23.37;37.91
43989;BME280;54163;51.386;7.178;2022-07-06T11:24:04;101509.13;;;23.67;38.19
43989;BME280;54163;51.386;7.178;2022-07-06T11:26:31;101499.25;;;23.74;37.76
43989;BME280;54163;51.386;7.178;2022-07-06T11:28:59;101509.56;;;23.80;37.48
43989;BME280;54163;51.386;7.178;2022-07-06T11:31:28;101507.19;;;24.03;37.73
43989;BME280;54163;51.386;7.178;2022-07-06T11:33:55;101495.69;;;24.25;37.03
43989;BME280;54163;51.386;7.178;2022-07-06T11:36:22;101504.53;;;24.45;37.55
43989;BME280;54163;51.386;7.178;2022-07-06T11:38:49;101508.47;;;24.50;36.75
43989;BME280;54163;51.386;7.178;2022-07-06T11:41:17;101499.50;;;24.74;36.39
43989;BME280;54163;51.386;7.178;2022-07-06T11:43:45;101505.44;;;25.03;36.30
43989;BME280;54163;51.386;7.178;2022-07-06T11:46:24;101508.09;;;24.79;35.95
43989;BME280;54163;51.386;7.178;2022-07-06T11:48:54;101504.38;;;24.88;36.19
43989;BME280;54163;51.386;7.178;2022-07-06T11:51:22;101521.06;;;24.95;36.17
43989;BME280;54163;51.386;7.178;2022-07-06T11:53:51;101512.09;;;24.51;36.35
43989;BME280;54163;51.386;7.178;2022-07-06T11:56:19;101502.34;;;24.23;36.85
43989;BME280;54163;51.386;7.178;2022-07-06T11:58:49;101506.69;;;24.07;37.05
43989;BME280;54163;51.386;7.178;2022-07-06T12:01:17;101513.38;;;24.31;36.99
43989;BME280;54163;51.386;7.178;2022-07-06T12:03:44;101514.56;;;24.62;37.09
43989;BME280;54163;51.386;7.178;2022-07-06T12:06:16;101510.25;;;24.93;36.84
43989;BME280;54163;51.386;7.178;2022-07-06T12:08:45;101507.03;;;25.22;36.25
43989;BME280;54163;51.386;7.178;2022-07-06T12:11:18;101506.16;;;25.13;36.36
43989;BME280;54163;51.386;7.178;2022-07-06T12:13:46;101499.00;;;25.37;36.32
43989;BME280;54163;51.386;7.178;2022-07-06T12:16:14;101505.75;;;25.75;36.32
43989;BME280;54163;51.386;7.178;2022-07-06T12:18:42;101497.28;;;26.00;35.51
43989;BME280;54163;51.386;7.178;2022-07-06T12:21:12;101495.56;;;25.91;34.37
43989;BME280;54163;51.386;7.178;2022-07-06T12:23:44;101490.41;;;26.04;34.55
43989;BME280;54163;51.386;7.178;2022-07-06T12:26:13;101479.06;;;26.07;34.33
43989;BME280;54163;51.386;7.178;2022-07-06T12:28:40;101475.63;;;26.05;33.92
43989;BME280;54163;51.386;7.178;2022-07-06T12:31:08;101483.25;;;25.71;34.08
43989;BME280;54163;51.386;7.178;2022-07-06T12:33:35;101469.66;;;25.70;34.73
43989;BME280;54163;51.386;7.178;2022-07-06T12:36:10;101470.44;;;26.10;34.22
43989;BME280;54163;51.386;7.178;2022-07-06T12:38:45;101465.91;;;26.42;34.11
43989;BME280;54163;51.386;7.178;2022-07-06T12:41:30;101461.00;;;26.60;34.02
43989;BME280;54163;51.386;7.178;2022-07-06T12:44:04;101455.16;;;26.08;33.26
43989;BME280;54163;51.386;7.178;2022-07-06T12:46:33;101453.16;;;25.86;34.50
43989;BME280;54163;51.386;7.178;2022-07-06T12:49:10;101460.19;;;25.96;34.35
43989;BME280;54163;51.386;7.178;2022-07-06T12:51:58;101452.22;;;26.09;33.98
43989;BME280;54163;51.386;7.178;2022-07-06T12:54:29;101454.25;;;26.32;33.31
43989;BME280;54163;51.386;7.178;2022-07-06T12:57:07;101446.50;;;26.43;32.65